sensor_id;sensor_type;location;lat;lon;timestamp;pressure;altitude;pressure_sealevel;temperature;humidity
42007;BME280;27696;42.704;23.304;2022-08-25T00:01:25;95100.00;;;36.51;28.84
42007;BME280;27696;42.704;23.304;2022-08-25T00:03:51;95106.31;;;36.61;28.21
42007;BME280;27696;42.704;23.304;2022-08-25T00:06:16;95113.00;;;35.40;29.88
42007;BME280;27696;42.704;23.304;2022-08-25T00:08:42;95113.63;;;35.48;30.54
42007;BME280;27696;42.704;23.304;2022-08-25T00:11:09;95099.72;;;35.68;29.90
42007;BME280;27696;42.704;23.304;2022-08-25T00:13:36;95099.44;;;36.03;29.46
42007;BME280;27696;42.704;23.304;2022-08-25T00:16:02;95102.53;;;35.88;29.48
42007;BME280;27696;42.704;23.304;2022-08-25T00:18:27;95097.69;;;36.28;28.69
42007;BME280;27696;42.704;23.304;2022-08-25T00:20:52;95103.31;;;35.41;29.62
42007;BME280;27696;42.704;23.304;2022-08-25T00:23:18;95088.66;;;35.51;30.07
42007;BME280;27696;42.704;23.304;2022-08-25T00:25:43;95092.97;;;35.81;29.64
42007;BME280;27696;42.704;23.304;2022-08-25T00:28:09;95099.00;;;35.21;30.67
42007;BME280;27696;42.704;23.304;2022-08-25T00:30:34;95096.22;;;36.17;29.37
42007;BME280;27696;42.704;23.304;2022-08-25T00:33:00;95093.56;;;36.19;29.46
42007;BME280;27696;42.704;23.304;2022-08-25T00:35:26;95090.38;;;35.36;30.04
42007;BME280;27696;42.704;23.304;2022-08-25T00:37:51;95090.78;;;35.99;29.45
42007;BME280;27696;42.704;23.304;2022-08-25T00:40:17;95080.94;;;36.79;28.37
42007;BME280;27696;42.704;23.304;2022-08-25T00:42:43;95079.69;;;37.01;27.79
42007;BME280;27696;42.704;23.304;2022-08-25T00:45:08;95085.47;;;35.84;29.64
42007;BME280;27696;42.704;23.304;2022-08-25T00:47:34;95091.81;;;36.94;27.85
42007;BME280;27696;42.704;23.304;2022-08-25T00:49:59;95093.66;;;37.11;27.56
42007;BME280;27696;42.704;23.304;2022-08-25T00:52:30;95088.97;;;37.04;28.23
42007;BME280;27696;42.704;23.304;2022-08-25T00:55:08;95105.59;;;36.41;28.77
42007;BME280;27696;42.704;23.304;2022-08-25T00:57:36;95107.53;;;36.19;28.97
42007;BME280;27696;42.704;23.304;2022-08-25T01:00:04;95102.06;;;35.82;29.72
42007;BME280;27696;42.704;23.304;2022-08-25T01:02:30;95098.28;;;37.28;27.49
42007;BME280;27696;42.704;23.304;2022-08-25T01:04:56;95090.19;;;36.91;27.44
42007;BME280;27696;42.704;23.304;2022-08-25T01:07:22;95082.00;;;36.64;27.98
42007;BME280;27696;42.704;23.304;2022-08-25T01:09:48;95075.34;;;35.22;29.82
42007;BME280;27696;42.704;23.304;2022-08-25T01:12:15;95065.16;;;35.54;29.66
42007;BME280;27696;42.704;23.304;2022-08-25T01:14:41;95075.22;;;34.82;30.84
42007;BME280;27696;42.704;23.304;2022-08-25T01:17:07;95067.91;;;35.34;30.12
42007;BME280;27696;42.704;23.304;2022-08-25T01:19:33;95076.78;;;35.70;29.75
42007;BME280;27696;42.704;23.304;2022-08-25T01:21:59;95074.03;;;35.99;29.04
42007;BME280;27696;42.704;23.304;2022-08-25T01:26:49;95064.84;;;35.49;29.85
42007;BME280;27696;42.704;23.304;2022-08-25T01:29:15;95076.94;;;34.50;31.17
42007;BME280;27696;42.704;23.304;2022-08-25T01:31:49;95078.66;;;34.73;31.29
42007;BME280;27696;42.704;23.304;2022-08-25T01:34:15;95074.13;;;35.72;29.80
42007;BME280;27696;42.704;23.304;2022-08-25T01:36:42;95075.72;;;35.45;30.45
42007;BME280;27696;42.704;23.304;2022-08-25T01:39:08;95073.72;;;35.95;29.05
42007;BME280;27696;42.704;23.304;2022-08-25T01:41:44;95076.91;;;34.95;31.07
42007;BME280;27696;42.704;23.304;2022-08-25T01:44:13;95071.09;;;34.29;31.45
42007;BME280;27696;42.704;23.304;2022-08-25T01:46:38;95069.50;;;35.27;29.40
42007;BME280;27696;42.704;23.304;2022-08-25T01:49:04;95075.53;;;34.59;30.96
42007;BME280;27696;42.704;23.304;2022-08-25T01:51:33;95072.75;;;33.97;31.52
42007;BME280;27696;42.704;23.304;2022-08-25T01:53:58;95076.16;;;34.40;30.97
42007;BME280;27696;42.704;23.304;2022-08-25T01:56:24;95076.22;;;34.50;30.98
42007;BME280;27696;42.704;23.304;2022-08-25T01:58:49;95077.94;;;35.00;30.52
42007;BME280;27696;42.704;23.304;2022-08-25T02:01:19;95060.47;;;34.17;31.43
42007;BME280;27696;42.704;23.304;2022-08-25T02:03:46;95081.91;;;34.24;31.49
42007;BME280;27696;42.704;23.304;2022-08-25T02:06:11;95078.88;;;34.30;31.50
42007;BME280;27696;42.704;23.304;2022-08-25T02:08:37;95062.91;;;34.58;30.78
42007;BME280;27696;42.704;23.304;2022-08-25T02:11:03;95068.28;;;34.46;30.95
42007;BME280;27696;42.704;23.304;2022-08-25T02:13:28;95065.88;;;34.97;30.33
42007;BME280;27696;42.704;23.304;2022-08-25T02:15:54;95066.16;;;34.92;30.01
42007;BME280;27696;42.704;23.304;2022-08-25T02:18:20;95061.72;;;34.34;31.13
42007;BME280;27696;42.704;23.304;2022-08-25T02:20:46;95067.59;;;34.10;31.04
42007;BME280;27696;42.704;23.304;2022-08-25T02:23:12;95053.34;;;34.34;31.04
42007;BME280;27696;42.704;23.304;2022-08-25T02:25:38;95063.66;;;34.59;30.79
42007;BME280;27696;42.704;23.304;2022-08-25T02:28:04;95049.34;;;34.27;31.15
42007;BME280;27696;42.704;23.304;2022-08-25T02:30:30;95054.78;;;34.52;30.58
42007;BME280;27696;42.704;23.304;2022-08-25T02:32:56;95057.00;;;33.39;32.15
42007;BME280;27696;42.704;23.304;2022-08-25T02:35:21;95060.78;;;33.86;31.39
42007;BME280;27696;42.704;23.304;2022-08-25T02:37:47;95059.00;;;33.99;31.43
42007;BME280;27696;42.704;23.304;2022-08-25T02:40:14;95060.22;;;34.05;31.29
42007;BME280;27696;42.704;23.304;2022-08-25T02:42:39;95066.47;;;34.68;30.38
42007;BME280;27696;42.704;23.304;2022-08-25T02:45:04;95058.22;;;34.16;31.17
42007;BME280;27696;42.704;23.304;2022-08-25T02:47:31;95059.56;;;33.79;31.78
42007;BME280;27696;42.704;23.304;2022-08-25T02:49:57;95057.31;;;33.43;32.16
42007;BME280;27696;42.704;23.304;2022-08-25T02:52:22;95056.41;;;34.28;30.95
42007;BME280;27696;42.704;23.304;2022-08-25T02:54:47;95058.31;;;33.38;32.27
42007;BME280;27696;42.704;23.304;2022-08-25T02:57:13;95066.34;;;33.69;31.82
42007;BME280;27696;42.704;23.304;2022-08-25T02:59:39;95067.78;;;33.95;31.57
42007;BME280;27696;42.704;23.304;2022-08-25T03:02:05;95072.81;;;33.36;32.48
42007;BME280;27696;42.704;23.304;2022-08-25T03:04:30;95078.41;;;33.28;32.61
42007;BME280;27696;42.704;23.304;2022-08-25T03:06:56;95085.03;;;33.58;32.12
42007;BME280;27696;42.704;23.304;2022-08-25T03:09:22;95081.53;;;33.93;31.62
42007;BME280;27696;42.704;23.304;2022-08-25T03:11:47;95075.19;;;33.75;32.05
42007;BME280;27696;42.704;23.304;2022-08-25T03:14:13;95076.13;;;33.77;31.87
42007;BME280;27696;42.704;23.304;2022-08-25T03:16:38;95076.28;;;33.79;31.76
42007;BME280;27696;42.704;23.304;2022-08-25T03:19:04;95070.75;;;34.24;30.99
42007;BME280;27696;42.704;23.304;2022-08-25T03:21:30;95071.28;;;34.13;31.15
42007;BME280;27696;42.704;23.304;2022-08-25T03:23:55;95060.34;;;34.43;30.88
42007;BME280;27696;42.704;23.304;2022-08-25T03:26:21;95070.53;;;33.77;31.71
42007;BME280;27696;42.704;23.304;2022-08-25T03:29:05;95072.16;;;33.80;31.83
42007;BME280;27696;42.704;23.304;2022-08-25T03:31:31;95068.72;;;33.72;31.78
42007;BME280;27696;42.704;23.304;2022-08-25T03:33:58;95070.63;;;33.70;31.85
42007;BME280;27696;42.704;23.304;2022-08-25T03:36:24;95068.53;;;33.95;31.39
42007;BME280;27696;42.704;23.304;2022-08-25T03:38:50;95073.75;;;33.74;31.90
42007;BME280;27696;42.704;23.304;2022-08-25T03:41:22;95082.13;;;33.91;31.68
42007;BME280;27696;42.704;23.304;2022-08-25T03:43:48;95075.38;;;33.77;31.77
42007;BME280;27696;42.704;23.304;2022-08-25T03:46:22;95073.75;;;33.91;31.52
42007;BME280;27696;42.704;23.304;2022-08-25T03:48:48;95076.63;;;34.01;31.46
42007;BME280;27696;42.704;23.304;2022-08-25T03:51:20;95070.81;;;34.07;31.43
42007;BME280;27696;42.704;23.304;2022-08-25T03:53:46;95073.91;;;33.58;31.87
42007;BME280;27696;42.704;23.304;2022-08-25T03:56:11;95073.88;;;33.41;32.65
42007;BME280;27696;42.704;23.304;2022-08-25T03:58:37;95061.88;;;33.30;32.14
42007;BME280;27696;42.704;23.304;2022-08-25T04:01:02;95059.47;;;33.70;31.74
42007;BME280;27696;42.704;23.304;2022-08-25T04:03:27;95063.34;;;33.92;31.38
42007;BME280;27696;42.704;23.304;2022-08-25T04:05:53;95061.94;;;34.01;31.43
42007;BME280;27696;42.704;23.304;2022-08-25T04:08:18;95064.41;;;33.97;31.30
42007;BME280;27696;42.704;23.304;2022-08-25T04:10:43;95059.97;;;33.58;31.67
42007;BME280;27696;42.704;23.304;2022-08-25T04:13:08;95057.13;;;34.46;30.41
42007;BME280;27696;42.704;23.304;2022-08-25T04:15:34;95062.34;;;33.79;31.58
42007;BME280;27696;42.704;23.304;2022-08-25T04:17:59;95063.91;;;33.73;31.86
42007;BME280;27696;42.704;23.304;2022-08-25T04:20:25;95073.41;;;33.87;31.76
42007;BME280;27696;42.704;23.304;2022-08-25T04:22:50;95077.84;;;33.90;31.17
42007;BME280;27696;42.704;23.304;2022-08-25T04:25:15;95074.66;;;34.12;31.34
42007;BME280;27696;42.704;23.304;2022-08-25T04:27:41;95065.53;;;34.56;30.12
42007;BME280;27696;42.704;23.304;2022-08-25T04:30:06;95054.22;;;34.54;30.45
42007;BME280;27696;42.704;23.304;2022-08-25T04:32:32;95054.34;;;34.46;30.45
42007;BME280;27696;42.704;23.304;2022-08-25T04:34:59;95050.84;;;34.55;30.45
42007;BME280;27696;42.704;23.304;2022-08-25T04:37:24;95051.16;;;34.87;29.76
42007;BME280;27696;42.704;23.304;2022-08-25T04:39:50;95057.19;;;34.11;31.18
42007;BME280;27696;42.704;23.304;2022-08-25T04:42:15;95056.50;;;34.20;30.79
42007;BME280;27696;42.704;23.304;2022-08-25T04:44:40;95071.00;;;34.64;30.21
42007;BME280;27696;42.704;23.304;2022-08-25T04:47:06;95055.75;;;34.65;29.89
42007;BME280;27696;42.704;23.304;2022-08-25T04:49:31;95070.38;;;34.55;30.18
42007;BME280;27696;42.704;23.304;2022-08-25T04:51:56;95067.44;;;34.91;29.75
42007;BME280;27696;42.704;23.304;2022-08-25T04:54:22;95073.16;;;34.55;30.42
42007;BME280;27696;42.704;23.304;2022-08-25T04:56:47;95078.38;;;34.69;29.95
42007;BME280;27696;42.704;23.304;2022-08-25T04:59:14;95084.03;;;34.88;29.61
42007;BME280;27696;42.704;23.304;2022-08-25T05:01:40;95073.72;;;34.81;29.87
42007;BME280;27696;42.704;23.304;2022-08-25T05:04:07;95069.44;;;36.04;28.04
42007;BME280;27696;42.704;23.304;2022-08-25T05:06:32;95070.00;;;35.83;28.35
42007;BME280;27696;42.704;23.304;2022-08-25T05:08:58;95065.31;;;35.75;28.44
42007;BME280;27696;42.704;23.304;2022-08-25T05:11:24;95070.44;;;35.49;28.78
42007;BME280;27696;42.704;23.304;2022-08-25T05:13:50;95063.72;;;36.02;27.68
42007;BME280;27696;42.704;23.304;2022-08-25T05:16:16;95062.53;;;36.05;27.81
42007;BME280;27696;42.704;23.304;2022-08-25T05:18:43;95064.56;;;35.45;28.53
42007;BME280;27696;42.704;23.304;2022-08-25T05:21:10;95063.38;;;35.48;28.87
42007;BME280;27696;42.704;23.304;2022-08-25T05:23:36;95073.16;;;34.83;29.47
42007;BME280;27696;42.704;23.304;2022-08-25T05:26:07;95062.25;;;34.77;29.81
42007;BME280;27696;42.704;23.304;2022-08-25T05:28:32;95060.94;;;35.15;28.98
42007;BME280;27696;42.704;23.304;2022-08-25T05:30:59;95055.34;;;34.78;29.73
42007;BME280;27696;42.704;23.304;2022-08-25T05:33:25;95055.81;;;34.47;30.34
42007;BME280;27696;42.704;23.304;2022-08-25T05:35:50;95059.63;;;34.24;30.50
42007;BME280;27696;42.704;23.304;2022-08-25T05:38:15;95055.81;;;34.30;30.46
42007;BME280;27696;42.704;23.304;2022-08-25T05:40:41;95064.06;;;34.55;30.32
42007;BME280;27696;42.704;23.304;2022-08-25T05:43:06;95048.69;;;35.58;28.95
42007;BME280;27696;42.704;23.304;2022-08-25T05:45:31;95060.94;;;35.15;29.38
42007;BME280;27696;42.704;23.304;2022-08-25T05:47:57;95065.28;;;34.99;29.22
42007;BME280;27696;42.704;23.304;2022-08-25T05:50:22;95057.28;;;34.48;30.25
42007;BME280;27696;42.704;23.304;2022-08-25T05:52:48;95057.50;;;35.54;29.01
42007;BME280;27696;42.704;23.304;2022-08-25T05:55:13;95052.38;;;35.80;28.37
42007;BME280;27696;42.704;23.304;2022-08-25T05:57:39;95062.34;;;35.44;28.92
42007;BME280;27696;42.704;23.304;2022-08-25T06:00:05;95062.03;;;36.48;27.31
42007;BME280;27696;42.704;23.304;2022-08-25T06:02:31;95072.16;;;34.88;29.96
42007;BME280;27696;42.704;23.304;2022-08-25T06:05:18;95069.06;;;34.56;30.57
42007;BME280;27696;42.704;23.304;2022-08-25T06:07:44;95062.22;;;35.91;28.48
42007;BME280;27696;42.704;23.304;2022-08-25T06:10:11;95064.28;;;35.61;29.02
42007;BME280;27696;42.704;23.304;2022-08-25T06:12:37;95068.91;;;35.19;29.53
42007;BME280;27696;42.704;23.304;2022-08-25T06:15:03;95072.38;;;35.86;28.54
42007;BME280;27696;42.704;23.304;2022-08-25T06:17:29;95066.97;;;35.22;29.93
42007;BME280;27696;42.704;23.304;2022-08-25T06:19:54;95063.69;;;35.53;29.35
42007;BME280;27696;42.704;23.304;2022-08-25T06:22:20;95060.88;;;35.43;29.39
42007;BME280;27696;42.704;23.304;2022-08-25T06:24:45;95055.47;;;35.74;29.37
42007;BME280;27696;42.704;23.304;2022-08-25T06:27:11;95047.97;;;35.67;29.58
42007;BME280;27696;42.704;23.304;2022-08-25T06:29:36;95046.66;;;35.68;29.18
42007;BME280;27696;42.704;23.304;2022-08-25T06:32:01;95054.75;;;35.93;28.86
42007;BME280;27696;42.704;23.304;2022-08-25T06:34:27;95061.03;;;35.64;29.33
42007;BME280;27696;42.704;23.304;2022-08-25T06:36:52;95056.81;;;35.16;30.16
42007;BME280;27696;42.704;23.304;2022-08-25T06:39:17;95051.66;;;35.79;29.12
42007;BME280;27696;42.704;23.304;2022-08-25T06:41:43;95051.91;;;36.43;28.45
42007;BME280;27696;42.704;23.304;2022-08-25T06:44:08;95058.34;;;36.55;28.36
42007;BME280;27696;42.704;23.304;2022-08-25T06:46:35;95056.38;;;37.09;27.23
42007;BME280;27696;42.704;23.304;2022-08-25T06:49:00;95057.34;;;36.31;28.69
42007;BME280;27696;42.704;23.304;2022-08-25T06:51:25;95047.28;;;37.73;26.37
42007;BME280;27696;42.704;23.304;2022-08-25T06:53:51;95047.72;;;36.63;27.59
42007;BME280;27696;42.704;23.304;2022-08-25T06:56:18;95055.19;;;36.70;28.13
42007;BME280;27696;42.704;23.304;2022-08-25T06:58:43;95048.88;;;37.76;26.87
42007;BME280;27696;42.704;23.304;2022-08-25T07:01:13;95052.31;;;36.90;27.55
42007;BME280;27696;42.704;23.304;2022-08-25T07:03:39;95053.81;;;36.20;28.76
42007;BME280;27696;42.704;23.304;2022-08-25T07:06:05;95053.69;;;35.69;29.41
42007;BME280;27696;42.704;23.304;2022-08-25T07:08:30;95054.97;;;36.37;28.27
42007;BME280;27696;42.704;23.304;2022-08-25T07:10:56;95057.72;;;37.08;27.47
42007;BME280;27696;42.704;23.304;2022-08-25T07:13:22;95048.66;;;37.19;27.21
42007;BME280;27696;42.704;23.304;2022-08-25T07:15:51;95045.00;;;37.38;26.62
42007;BME280;27696;42.704;23.304;2022-08-25T07:18:17;95052.53;;;37.79;26.58
42007;BME280;27696;42.704;23.304;2022-08-25T07:20:42;95052.06;;;38.04;26.40
42007;BME280;27696;42.704;23.304;2022-08-25T07:23:08;95049.84;;;38.36;25.94
42007;BME280;27696;42.704;23.304;2022-08-25T07:25:33;95049.63;;;37.55;26.74
42007;BME280;27696;42.704;23.304;2022-08-25T07:27:59;95050.97;;;38.43;25.85
42007;BME280;27696;42.704;23.304;2022-08-25T07:30:25;95048.78;;;37.86;25.69
42007;BME280;27696;42.704;23.304;2022-08-25T07:32:50;95055.94;;;37.12;26.72
42007;BME280;27696;42.704;23.304;2022-08-25T07:35:15;95050.03;;;35.76;28.57
42007;BME280;27696;42.704;23.304;2022-08-25T07:37:42;95046.25;;;37.57;26.51
42007;BME280;27696;42.704;23.304;2022-08-25T07:40:09;95048.25;;;37.35;26.52
42007;BME280;27696;42.704;23.304;2022-08-25T07:42:34;95048.78;;;37.86;26.25
42007;BME280;27696;42.704;23.304;2022-08-25T07:45:00;95052.25;;;37.97;26.25
42007;BME280;27696;42.704;23.304;2022-08-25T07:47:25;95051.00;;;36.91;27.17
42007;BME280;27696;42.704;23.304;2022-08-25T07:49:50;95050.91;;;37.42;26.33
42007;BME280;27696;42.704;23.304;2022-08-25T07:52:16;95054.31;;;38.30;25.90
42007;BME280;27696;42.704;23.304;2022-08-25T07:54:41;95062.47;;;38.71;25.05
42007;BME280;27696;42.704;23.304;2022-08-25T07:57:07;95053.84;;;37.66;26.46
42007;BME280;27696;42.704;23.304;2022-08-25T07:59:32;95048.91;;;38.10;25.78
42007;BME280;27696;42.704;23.304;2022-08-25T08:01:58;95051.59;;;37.21;27.10
42007;BME280;27696;42.704;23.304;2022-08-25T08:04:23;95047.97;;;38.29;25.64
42007;BME280;27696;42.704;23.304;2022-08-25T08:06:48;95051.00;;;38.21;25.59
42007;BME280;27696;42.704;23.304;2022-08-25T08:09:14;95050.03;;;38.74;24.78
42007;BME280;27696;42.704;23.304;2022-08-25T08:11:40;95048.28;;;38.45;25.17
42007;BME280;27696;42.704;23.304;2022-08-25T08:14:08;95039.69;;;39.62;23.79
42007;BME280;27696;42.704;23.304;2022-08-25T08:16:34;95041.28;;;37.89;25.56
42007;BME280;27696;42.704;23.304;2022-08-25T08:18:59;95031.44;;;39.40;23.62
42007;BME280;27696;42.704;23.304;2022-08-25T08:21:29;95037.34;;;39.09;24.20
42007;BME280;27696;42.704;23.304;2022-08-25T08:23:55;95038.44;;;38.68;25.04
42007;BME280;27696;42.704;23.304;2022-08-25T08:26:20;95030.44;;;39.47;23.82
42007;BME280;27696;42.704;23.304;2022-08-25T08:28:46;95024.78;;;40.23;23.24
42007;BME280;27696;42.704;23.304;2022-08-25T08:31:11;95028.44;;;38.89;24.23
42007;BME280;27696;42.704;23.304;2022-08-25T08:33:37;95028.06;;;38.70;24.89
42007;BME280;27696;42.704;23.304;2022-08-25T08:36:04;95022.91;;;38.43;25.51
42007;BME280;27696;42.704;23.304;2022-08-25T08:38:29;95027.38;;;37.69;26.07
42007;BME280;27696;42.704;23.304;2022-08-25T08:44:00;95020.03;;;38.77;24.66
42007;BME280;27696;42.704;23.304;2022-08-25T08:46:33;95021.59;;;39.77;23.86
42007;BME280;27696;42.704;23.304;2022-08-25T08:49:04;95013.44;;;40.61;22.52
42007;BME280;27696;42.704;23.304;2022-08-25T08:51:34;95007.63;;;40.31;22.79
42007;BME280;27696;42.704;23.304;2022-08-25T08:56:34;95009.03;;;39.92;23.86
42007;BME280;27696;42.704;23.304;2022-08-25T08:59:05;95005.75;;;40.75;22.05
42007;BME280;27696;42.704;23.304;2022-08-25T09:01:37;95008.22;;;40.15;23.20
42007;BME280;27696;42.704;23.304;2022-08-25T09:04:08;95006.00;;;40.53;22.74
42007;BME280;27696;42.704;23.304;2022-08-25T09:06:47;94999.44;;;39.83;23.33
42007;BME280;27696;42.704;23.304;2022-08-25T09:09:15;94997.59;;;40.67;22.12
42007;BME280;27696;42.704;23.304;2022-08-25T09:11:47;94999.31;;;40.33;22.39
42007;BME280;27696;42.704;23.304;2022-08-25T09:19:40;95000.97;;;39.98;22.76
42007;BME280;27696;42.704;23.304;2022-08-25T09:22:30;95002.59;;;39.52;23.61
42007;BME280;27696;42.704;23.304;2022-08-25T09:25:10;94995.06;;;40.06;22.57
42007;BME280;27696;42.704;23.304;2022-08-25T09:27:44;95003.94;;;39.51;23.74
42007;BME280;27696;42.704;23.304;2022-08-25T09:30:13;94994.03;;;40.53;22.29
42007;BME280;27696;42.704;23.304;2022-08-25T09:32:40;94999.16;;;39.91;23.26
42007;BME280;27696;42.704;23.304;2022-08-25T09:35:06;94989.22;;;40.55;22.23
42007;BME280;27696;42.704;23.304;2022-08-25T09:37:34;94987.97;;;42.16;20.29
42007;BME280;27696;42.704;23.304;2022-08-25T09:39:59;94986.88;;;40.24;22.09
42007;BME280;27696;42.704;23.304;2022-08-25T09:42:44;94988.16;;;40.35;21.44
42007;BME280;27696;42.704;23.304;2022-08-25T09:45:11;94987.75;;;40.41;21.87
42007;BME280;27696;42.704;23.304;2022-08-25T09:47:42;94988.53;;;40.97;20.49
42007;BME280;27696;42.704;23.304;2022-08-25T09:50:07;94980.06;;;41.39;20.50
42007;BME280;27696;42.704;23.304;2022-08-25T09:52:39;94978.47;;;41.94;19.89
42007;BME280;27696;42.704;23.304;2022-08-25T09:57:34;94981.94;;;41.48;20.19
42007;BME280;27696;42.704;23.304;2022-08-25T10:03:00;94990.09;;;41.00;20.86
42007;BME280;27696;42.704;23.304;2022-08-25T10:05:26;94976.84;;;41.16;20.26
42007;BME280;27696;42.704;23.304;2022-08-25T10:07:56;94981.66;;;41.72;19.92
42007;BME280;27696;42.704;23.304;2022-08-25T10:10:23;94978.78;;;41.86;19.63
42007;BME280;27696;42.704;23.304;2022-08-25T10:12:49;94984.50;;;41.88;19.26
42007;BME280;27696;42.704;23.304;2022-08-25T10:15:19;94988.25;;;39.97;21.40
42007;BME280;27696;42.704;23.304;2022-08-25T10:17:45;94981.50;;;39.76;21.01
42007;BME280;27696;42.704;23.304;2022-08-25T10:20:12;94975.50;;;41.04;19.99
42007;BME280;27696;42.704;23.304;2022-08-25T10:22:39;94981.28;;;41.80;19.44
42007;BME280;27696;42.704;23.304;2022-08-25T10:25:09;94973.78;;;42.62;18.20
42007;BME280;27696;42.704;23.304;2022-08-25T10:30:19;94971.47;;;43.77;16.97
42007;BME280;27696;42.704;23.304;2022-08-25T10:35:18;94970.56;;;41.76;18.49
42007;BME280;27696;42.704;23.304;2022-08-25T10:42:50;94975.03;;;41.81;18.87
42007;BME280;27696;42.704;23.304;2022-08-25T10:48:08;94954.47;;;42.57;18.05
42007;BME280;27696;42.704;23.304;2022-08-25T11:00:43;94953.53;;;42.04;19.28
42007;BME280;27696;42.704;23.304;2022-08-25T11:05:50;94950.06;;;44.28;16.47
42007;BME280;27696;42.704;23.304;2022-08-25T11:08:38;94943.97;;;43.80;16.87
42007;BME280;27696;42.704;23.304;2022-08-25T11:11:23;94944.19;;;44.22;16.81
42007;BME280;27696;42.704;23.304;2022-08-25T11:14:00;94948.97;;;42.93;17.96
42007;BME280;27696;42.704;23.304;2022-08-25T11:19:32;94948.63;;;42.68;18.42
42007;BME280;27696;42.704;23.304;2022-08-25T11:26:56;94929.50;;;41.43;19.17
42007;BME280;27696;42.704;23.304;2022-08-25T11:29:24;94914.97;;;42.25;17.97
42007;BME280;27696;42.704;23.304;2022-08-25T11:31:52;94912.38;;;42.79;17.90
42007;BME280;27696;42.704;23.304;2022-08-25T11:34:18;94913.31;;;42.35;18.38
42007;BME280;27696;42.704;23.304;2022-08-25T11:36:51;94913.72;;;43.64;17.31
42007;BME280;27696;42.704;23.304;2022-08-25T11:42:32;94901.94;;;44.28;16.41
42007;BME280;27696;42.704;23.304;2022-08-25T11:51:57;94901.28;;;43.35;17.33
42007;BME280;27696;42.704;23.304;2022-08-25T11:54:26;94899.63;;;44.63;15.62
42007;BME280;27696;42.704;23.304;2022-08-25T11:56:58;94903.38;;;42.18;18.87
42007;BME280;27696;42.704;23.304;2022-08-25T12:02:17;94898.50;;;41.57;19.15
42007;BME280;27696;42.704;23.304;2022-08-25T12:04:51;94904.66;;;41.53;18.81
42007;BME280;27696;42.704;23.304;2022-08-25T12:07:20;94893.38;;;41.53;19.09
42007;BME280;27696;42.704;23.304;2022-08-25T12:14:54;94891.34;;;40.82;19.16
42007;BME280;27696;42.704;23.304;2022-08-25T12:17:24;94895.22;;;42.91;17.44
42007;BME280;27696;42.704;23.304;2022-08-25T12:19:51;94893.66;;;43.22;17.91
42007;BME280;27696;42.704;23.304;2022-08-25T12:24:48;94899.19;;;43.02;17.69
42007;BME280;27696;42.704;23.304;2022-08-25T12:29:50;94886.09;;;41.48;18.97
42007;BME280;27696;42.704;23.304;2022-08-25T12:35:15;94892.28;;;42.54;18.16
42007;BME280;27696;42.704;23.304;2022-08-25T12:40:29;94895.16;;;43.07;18.05
42007;BME280;27696;42.704;23.304;2022-08-25T12:43:04;94883.75;;;42.87;17.88
42007;BME280;27696;42.704;23.304;2022-08-25T12:45:34;94887.25;;;43.94;17.06
42007;BME280;27696;42.704;23.304;2022-08-25T12:50:45;94886.22;;;43.49;16.79
42007;BME280;27696;42.704;23.304;2022-08-25T12:53:16;94882.69;;;43.66;16.41
42007;BME280;27696;42.704;23.304;2022-08-25T12:55:47;94877.50;;;43.79;16.79
42007;BME280;27696;42.704;23.304;2022-08-25T12:58:14;94883.75;;;43.95;16.55
42007;BME280;27696;42.704;23.304;2022-08-25T13:00:49;94892.13;;;43.37;17.09
42007;BME280;27696;42.704;23.304;2022-08-25T13:05:54;94886.75;;;42.25;17.92
42007;BME280;27696;42.704;23.304;2022-08-25T13:10:54;94867.06;;;41.79;17.71
42007;BME280;27696;42.704;23.304;2022-08-25T13:15:46;94893.84;;;42.42;17.46
42007;BME280;27696;42.704;23.304;2022-08-25T13:18:25;94891.31;;;42.82;17.40
42007;BME280;27696;42.704;23.304;2022-08-25T13:21:00;94894.59;;;43.10;16.92
42007;BME280;27696;42.704;23.304;2022-08-25T13:23:27;94889.28;;;42.02;17.40
42007;BME280;27696;42.704;23.304;2022-08-25T13:25:53;94894.88;;;43.53;16.28
42007;BME280;27696;42.704;23.304;2022-08-25T13:28:21;94893.59;;;43.20;16.53
42007;BME280;27696;42.704;23.304;2022-08-25T13:30:49;94887.16;;;43.01;17.09
42007;BME280;27696;42.704;23.304;2022-08-25T13:33:21;94893.72;;;43.06;16.77
42007;BME280;27696;42.704;23.304;2022-08-25T13:35:50;94892.31;;;42.89;16.91
42007;BME280;27696;42.704;23.304;2022-08-25T13:38:35;94883.50;;;44.27;15.93
42007;BME280;27696;42.704;23.304;2022-08-25T13:41:02;94873.81;;;45.17;15.79
42007;BME280;27696;42.704;23.304;2022-08-25T13:43:27;94892.81;;;43.01;16.63
42007;BME280;27696;42.704;23.304;2022-08-25T13:45:52;94879.38;;;43.36;16.51
42007;BME280;27696;42.704;23.304;2022-08-25T13:48:37;94882.69;;;43.30;17.04
42007;BME280;27696;42.704;23.304;2022-08-25T13:53:31;94881.44;;;44.28;15.37
42007;BME280;27696;42.704;23.304;2022-08-25T13:55:57;94883.06;;;44.15;15.77
42007;BME280;27696;42.704;23.304;2022-08-25T13:58:27;94892.94;;;44.14;15.47
42007;BME280;27696;42.704;23.304;2022-08-25T14:03:32;94892.44;;;43.45;16.78
42007;BME280;27696;42.704;23.304;2022-08-25T14:08:39;94889.19;;;44.27;15.89
42007;BME280;27696;42.704;23.304;2022-08-25T14:11:11;94887.25;;;43.94;15.98
42007;BME280;27696;42.704;23.304;2022-08-25T14:13:37;94886.69;;;44.17;16.71
42007;BME280;27696;42.704;23.304;2022-08-25T14:16:11;94887.88;;;44.30;15.75
42007;BME280;27696;42.704;23.304;2022-08-25T14:18:38;94884.81;;;44.85;15.50
42007;BME280;27696;42.704;23.304;2022-08-25T14:21:09;94878.13;;;44.35;16.47
42007;BME280;27696;42.704;23.304;2022-08-25T14:23:35;94892.63;;;42.63;16.76
42007;BME280;27696;42.704;23.304;2022-08-25T14:26:01;94885.16;;;43.58;15.93
42007;BME280;27696;42.704;23.304;2022-08-25T14:28:27;94888.00;;;43.22;16.07
42007;BME280;27696;42.704;23.304;2022-08-25T14:31:38;94881.50;;;43.01;16.53